Terminal Aerodrome Forecast
Issued by NWS Corpus Christi, TX

Home | Current Version | Previous Version | Text Only | Print | Product List | Glossary On
Versions: 1 2 3 4 5 6 7 8 9 10 11 12 13 14 15
381
FTUS44 KCRP 130522
TAFCRP
TAF
KCRP 130522Z 1306/1406 14008KT P6SM FEW020
     FM130700 15006KT 5SM BR SCT010
      TEMPO 1307/1309 2SM BR BKN010
     FM130900 VRB03KT 1SM BR SCT002
      TEMPO 1309/1313 1/2SM FG BKN002
     FM131430 13005KT 5SM BR SCT015
     FM131600 14009KT P6SM SCT025
     FM131900 13014KT P6SM SCT040
     FM140100 14010KT P6SM SCT015=

USA.gov is the U.S. government's official web portal to all federal, state and local government web resources and services.